createdAt,value
2019-05-01T00:02:29.279Z,28.73
2019-05-01T00:05:15.939Z,28.30
2019-05-01T00:07:45.177Z,28.80
2019-05-01T00:10:14.771Z,28.27
2019-05-01T00:12:43.854Z,28.10
2019-05-01T00:15:12.774Z,28.00
2019-05-01T00:17:41.974Z,28.07
2019-05-01T00:20:10.981Z,28.10
2019-05-01T00:22:40.274Z,30.43
2019-05-01T00:25:09.371Z,28.33
2019-05-01T00:27:38.466Z,29.37
2019-05-01T00:30:09.242Z,28.97
2019-05-01T00:32:39.874Z,30.97
2019-05-01T00:35:08.984Z,30.90
2019-05-01T00:37:38.092Z,29.97
2019-05-01T00:40:07.378Z,29.87
2019-05-01T00:42:36.446Z,28.77
2019-05-01T00:45:05.642Z,30.13
2019-05-01T00:47:34.751Z,31.47
2019-05-01T00:50:03.998Z,30.43
2019-05-01T00:52:33.115Z,33.13
2019-05-01T00:55:19.815Z,30.97
2019-05-01T00:57:56.506Z,31.23
2019-05-01T01:00:43.269Z,29.57
2019-05-01T01:03:07.979Z,31.13
2019-05-01T01:05:37.109Z,32.43
2019-05-01T01:08:06.233Z,31.43
2019-05-01T01:10:35.392Z,30.87
2019-05-01T01:13:04.500Z,31.17
2019-05-01T01:15:33.634Z,30.43
2019-05-01T01:18:02.775Z,32.17
2019-05-01T01:20:31.844Z,32.30
2019-05-01T01:23:00.958Z,32.07
2019-05-01T01:25:30.107Z,32.07
2019-05-01T01:27:59.258Z,31.70
2019-05-01T01:30:28.318Z,31.63
2019-05-01T01:32:57.401Z,30.07
2019-05-01T01:35:26.542Z,30.63
2019-05-01T01:37:55.680Z,31.57
2019-05-01T01:40:24.789Z,32.27
2019-05-01T01:42:56.141Z,31.73
2019-05-01T01:45:44.127Z,32.10
2019-05-01T01:48:14.938Z,31.47
2019-05-01T01:50:44.112Z,32.53
2019-05-01T01:53:13.693Z,33.10
2019-05-01T01:55:42.970Z,34.20
2019-05-01T01:58:12.044Z,34.57
2019-05-01T02:01:08.971Z,34.40
2019-05-01T02:03:32.459Z,35.03
2019-05-01T02:06:01.553Z,35.70
2019-05-01T02:08:30.752Z,33.53
2019-05-01T02:11:01.319Z,34.30
2019-05-01T02:13:30.522Z,34.67
2019-05-01T02:15:59.650Z,33.67
2019-05-01T02:18:28.767Z,33.13
2019-05-01T02:20:58.247Z,34.17
2019-05-01T02:23:27.361Z,33.20
2019-05-01T02:25:56.453Z,33.63
2019-05-01T02:28:53.672Z,34.13
2019-05-01T02:31:39.690Z,34.73
2019-05-01T02:34:08.844Z,34.20
2019-05-01T02:36:38.050Z,34.30
2019-05-01T02:39:08.899Z,34.90
2019-05-01T02:41:41.638Z,35.37
2019-05-01T02:44:22.518Z,33.50
2019-05-01T02:46:52.511Z,36.13
2019-05-01T02:49:34.596Z,34.50
2019-05-01T02:52:04.123Z,35.23
2019-05-01T02:54:33.565Z,36.83
2019-05-01T02:57:08.045Z,34.63
2019-05-01T02:59:37.178Z,34.67
2019-05-01T03:02:06.275Z,35.60
2019-05-01T03:04:35.458Z,34.17
2019-05-01T03:07:04.736Z,34.17
2019-05-01T03:09:34.128Z,35.57
2019-05-01T03:12:03.232Z,35.60
2019-05-01T03:14:32.357Z,34.90
2019-05-01T03:17:03.166Z,37.60
2019-05-01T03:19:54.150Z,38.93
2019-05-01T03:22:35.069Z,35.40
2019-05-01T03:25:05.274Z,34.30
2019-05-01T03:27:34.509Z,36.20
2019-05-01T03:30:04.231Z,35.67
2019-05-01T03:32:33.319Z,35.77
2019-05-01T03:35:02.454Z,35.57
2019-05-01T03:37:31.561Z,34.43
2019-05-01T03:40:00.692Z,35.47
2019-05-01T03:42:29.793Z,35.57
2019-05-01T03:44:58.947Z,36.70
2019-05-01T03:47:28.025Z,34.87
2019-05-01T03:49:57.272Z,35.40
2019-05-01T03:52:26.386Z,37.03
2019-05-01T03:54:55.527Z,36.67
2019-05-01T03:57:24.573Z,39.30
2019-05-01T03:59:53.884Z,40.63
2019-05-01T04:02:39.674Z,39.57
2019-05-01T04:05:08.735Z,37.30
2019-05-01T04:07:37.859Z,39.63
2019-05-01T04:10:07.593Z,38.60
2019-05-01T04:12:36.698Z,39.50
2019-05-01T04:15:05.905Z,39.70
2019-05-01T04:17:51.881Z,38.13
2019-05-01T04:20:20.985Z,38.10
2019-05-01T04:22:50.065Z,37.67
2019-05-01T04:25:19.176Z,37.93
2019-05-01T04:27:49.910Z,36.63
2019-05-01T04:30:40.715Z,37.20
2019-05-01T04:33:12.238Z,37.10
2019-05-01T04:35:51.407Z,37.07
2019-05-01T04:38:20.506Z,36.23
2019-05-01T04:40:49.616Z,36.00
2019-05-01T04:43:18.648Z,34.20
2019-05-01T04:45:47.727Z,34.03
2019-05-01T04:48:16.797Z,34.73
2019-05-01T04:50:45.933Z,33.23
2019-05-01T04:53:15.090Z,34.90
2019-05-01T04:55:44.236Z,32.30
2019-05-01T04:58:13.389Z,32.97
2019-05-01T05:00:42.550Z,33.23
2019-05-01T05:03:16.655Z,33.80
2019-05-01T05:05:45.855Z,33.63
2019-05-01T05:08:14.959Z,33.57
2019-05-01T05:10:44.045Z,35.40
2019-05-01T05:13:37.826Z,32.50
2019-05-01T05:16:17.536Z,34.30
2019-05-01T05:18:46.603Z,32.93
2019-05-01T05:21:15.761Z,34.63
2019-05-01T05:23:44.826Z,36.00
2019-05-01T05:26:13.973Z,34.83
2019-05-01T05:28:43.045Z,34.47
2019-05-01T05:31:12.318Z,34.77
2019-05-01T05:33:41.397Z,34.67
2019-05-01T05:36:10.510Z,32.83
2019-05-01T05:38:54.146Z,33.13
2019-05-01T05:41:23.233Z,32.87
2019-05-01T05:43:52.291Z,33.00
2019-05-01T05:46:21.352Z,31.30
2019-05-01T05:48:50.403Z,32.93
2019-05-01T05:51:29.872Z,31.80
2019-05-01T05:54:02.891Z,33.43
2019-05-01T05:56:39.157Z,33.00
2019-05-01T05:59:13.470Z,34.23
2019-05-01T06:02:04.600Z,33.17
2019-05-01T06:04:58.727Z,34.10
2019-05-01T06:07:46.800Z,32.53
2019-05-01T06:10:31.957Z,33.13
2019-05-01T06:13:12.529Z,33.77
2019-05-01T06:16:03.698Z,32.73
2019-05-01T06:18:52.102Z,34.80
2019-05-01T06:21:36.611Z,33.40
2019-05-01T06:24:14.328Z,33.93
2019-05-01T06:26:43.417Z,33.90
2019-05-01T06:29:12.531Z,34.83
2019-05-01T06:31:41.630Z,35.03
2019-05-01T06:34:10.922Z,31.30
2019-05-01T06:36:44.304Z,30.23
2019-05-01T06:39:13.279Z,31.87
2019-05-01T06:41:44.112Z,29.40
2019-05-01T06:44:43.856Z,31.17
2019-05-01T06:47:16.155Z,31.63
2019-05-01T06:50:06.034Z,31.53
2019-05-01T06:52:36.338Z,30.03
2019-05-01T06:55:05.890Z,32.67
2019-05-01T06:57:38.348Z,32.60
2019-05-01T07:00:09.437Z,33.60
2019-05-01T07:02:38.752Z,35.27
2019-05-01T07:05:09.270Z,35.40
2019-05-01T07:07:39.343Z,35.00
2019-05-01T07:10:08.503Z,35.53
2019-05-01T07:12:37.573Z,36.20
2019-05-01T07:15:06.760Z,35.57
2019-05-01T07:17:35.918Z,36.47
2019-05-01T07:20:27.276Z,34.80
2019-05-01T07:22:56.509Z,34.23
2019-05-01T07:25:25.702Z,37.03
2019-05-01T07:27:58.501Z,36.97
2019-05-01T07:30:41.599Z,35.13
2019-05-01T07:33:11.904Z,36.23
2019-05-01T07:35:41.845Z,36.10
2019-05-01T07:38:11.043Z,35.70
2019-05-01T07:40:40.229Z,37.30
2019-05-01T07:43:27.029Z,35.13
2019-05-01T07:46:13.821Z,35.40
2019-05-01T07:48:43.410Z,35.90
2019-05-01T07:51:12.552Z,34.33
2019-05-01T07:53:43.512Z,35.17
2019-05-01T07:56:12.644Z,36.27
2019-05-01T07:58:41.804Z,36.70
2019-05-01T08:01:27.495Z,35.23
2019-05-01T08:03:56.722Z,33.67
2019-05-01T08:06:25.946Z,35.40
2019-05-01T08:08:55.551Z,34.27
2019-05-01T08:11:24.819Z,33.83
2019-05-01T08:13:54.014Z,32.90
2019-05-01T08:16:23.259Z,32.50
2019-05-01T08:19:04.032Z,32.33
2019-05-01T08:22:01.730Z,30.80
2019-05-01T08:24:32.097Z,29.97
2019-05-01T08:27:01.464Z,32.63
2019-05-01T08:29:50.001Z,33.47
2019-05-01T08:32:42.427Z,32.27
2019-05-01T08:35:14.104Z,30.67
2019-05-01T08:37:45.313Z,30.10
2019-05-01T08:40:15.840Z,31.10
2019-05-01T08:42:55.236Z,31.30
2019-05-01T08:45:42.616Z,31.87
2019-05-01T08:48:25.302Z,31.37
2019-05-01T08:50:59.106Z,29.70
2019-05-01T08:53:30.555Z,31.67
2019-05-01T08:56:11.894Z,31.93
2019-05-01T08:58:44.775Z,33.33
2019-05-01T09:01:18.608Z,31.27
2019-05-01T09:03:49.725Z,31.70
2019-05-01T09:06:19.009Z,32.10
2019-05-01T09:08:48.535Z,31.87
2019-05-01T09:11:21.721Z,33.30
2019-05-01T09:13:54.626Z,31.93
2019-05-01T09:16:23.484Z,34.40
2019-05-01T09:18:53.731Z,33.70
2019-05-01T09:21:23.836Z,32.47
2019-05-01T09:23:53.499Z,32.57
2019-05-01T09:26:45.389Z,32.53
2019-05-01T09:29:17.870Z,34.17
2019-05-01T09:31:47.584Z,34.73
2019-05-01T09:34:19.130Z,34.13
2019-05-01T09:36:48.089Z,34.17
2019-05-01T09:39:17.408Z,37.80
2019-05-01T09:41:47.500Z,37.87
2019-05-01T09:44:17.556Z,39.60
2019-05-01T09:46:46.797Z,40.37
2019-05-01T09:49:18.250Z,44.63
2019-05-01T09:51:59.820Z,44.33
2019-05-01T09:54:38.143Z,44.40
2019-05-01T09:57:07.293Z,45.33
2019-05-01T09:59:36.418Z,47.90
2019-05-01T10:02:07.895Z,46.27
2019-05-01T10:04:37.262Z,48.47
2019-05-01T10:07:08.175Z,48.33
2019-05-01T10:09:37.691Z,47.40
2019-05-01T10:12:11.667Z,48.00
2019-05-01T10:14:38.007Z,47.03
2019-05-01T10:17:07.162Z,43.67
2019-05-01T10:19:36.493Z,44.70
2019-05-01T10:22:16.649Z,48.93
2019-05-01T10:24:45.854Z,48.30
2019-05-01T10:27:18.187Z,47.50
2019-05-01T10:43:17.808Z,51.47
2019-05-01T10:45:46.994Z,49.83
2019-05-01T10:48:16.128Z,50.07
2019-05-01T10:50:45.340Z,53.80
2019-05-01T10:53:14.578Z,51.93
2019-05-01T10:55:48.053Z,54.87
2019-05-01T10:58:18.281Z,54.30
2019-05-01T11:00:52.142Z,57.27
2019-05-01T11:03:21.374Z,56.97
2019-05-01T11:06:13.937Z,56.50
2019-05-01T11:08:43.351Z,55.20
2019-05-01T11:11:14.148Z,55.40
2019-05-01T11:13:43.367Z,56.33
2019-05-01T11:16:12.582Z,53.90
2019-05-01T11:18:41.865Z,54.67
2019-05-01T11:21:11.078Z,53.30
2019-05-01T11:23:40.574Z,52.60
2019-05-01T11:26:09.728Z,52.88
2019-05-01T11:28:38.866Z,52.62
2019-05-01T11:31:09.619Z,53.13
2019-05-01T11:33:56.369Z,50.65
2019-05-01T11:36:52.044Z,52.35
2019-05-01T11:39:46.409Z,53.52
2019-05-01T11:42:15.685Z,51.40
2019-05-01T11:44:44.879Z,51.77
2019-05-01T11:47:14.097Z,51.92
2019-05-01T11:49:43.278Z,52.50
2019-05-01T11:52:12.547Z,53.10
2019-05-01T11:54:41.873Z,53.93
2019-05-01T11:57:10.973Z,52.37
2019-05-01T11:59:40.282Z,55.37
2019-05-01T12:02:09.361Z,53.67
2019-05-01T12:04:38.465Z,49.60
2019-05-01T12:07:07.694Z,51.80
2019-05-01T12:09:36.929Z,51.07
2019-05-01T12:12:26.385Z,52.43
2019-05-01T12:14:56.364Z,52.57
2019-05-01T12:17:32.092Z,51.10
2019-05-01T12:20:01.645Z,50.83
2019-05-01T12:22:32.341Z,50.20
2019-05-01T12:25:01.558Z,49.73
2019-05-01T12:27:30.785Z,51.83
2019-05-01T12:29:59.879Z,52.17
2019-05-01T12:32:29.007Z,52.23
2019-05-01T12:34:58.178Z,53.90
2019-05-01T12:37:55.102Z,53.13
2019-05-01T12:40:23.338Z,51.73
2019-05-01T12:42:52.420Z,54.97
2019-05-01T12:45:22.110Z,52.43
2019-05-01T12:47:59.671Z,50.83
2019-05-01T12:50:28.901Z,51.33
2019-05-01T12:53:19.756Z,52.97
2019-05-01T12:56:13.634Z,51.80
2019-05-01T12:58:42.960Z,52.00
2019-05-01T13:01:12.079Z,51.73
2019-05-01T13:03:41.153Z,51.97
2019-05-01T13:06:10.394Z,52.40
2019-05-01T13:08:39.506Z,51.73
2019-05-01T13:11:08.771Z,53.57
2019-05-01T13:13:37.814Z,52.80
2019-05-01T13:16:08.897Z,53.10
2019-05-01T13:18:38.354Z,52.37
2019-05-01T13:21:09.676Z,53.27
2019-05-01T13:23:39.141Z,56.03
2019-05-01T13:26:18.998Z,55.17
2019-05-01T13:29:02.185Z,52.70
2019-05-01T13:31:46.529Z,51.33
2019-05-01T13:34:15.907Z,51.80
2019-05-01T13:36:45.189Z,51.53
2019-05-01T13:39:22.509Z,51.53
2019-05-01T13:41:51.753Z,49.83
2019-05-01T13:44:20.939Z,50.47
2019-05-01T13:46:50.069Z,49.80
2019-05-01T13:49:19.309Z,48.77
2019-05-01T13:51:48.532Z,49.43
2019-05-01T13:54:17.735Z,48.80
2019-05-01T13:56:46.904Z,51.60
2019-05-01T13:59:16.320Z,48.50
2019-05-01T14:01:45.566Z,51.13
2019-05-01T14:04:16.064Z,48.17
2019-05-01T14:06:45.223Z,49.07
2019-05-01T14:09:22.756Z,49.23
2019-05-01T14:11:51.918Z,48.53
2019-05-01T14:14:21.039Z,50.30
2019-05-01T14:16:50.065Z,49.17
2019-05-01T14:19:19.202Z,50.67
2019-05-01T14:22:19.141Z,49.30
2019-05-01T14:24:52.021Z,49.43
2019-05-01T14:27:21.401Z,49.50
2019-05-01T14:29:50.463Z,50.00
2019-05-01T14:32:19.503Z,52.00
2019-05-01T14:34:48.615Z,52.43
2019-05-01T14:37:29.062Z,49.60
2019-05-01T14:39:48.518Z,49.37
2019-05-01T14:42:17.666Z,49.73
2019-05-01T14:44:46.801Z,48.37
2019-05-01T14:47:15.926Z,49.03
2019-05-01T14:49:44.989Z,49.90
2019-05-01T14:52:14.066Z,51.70
2019-05-01T14:54:43.213Z,51.47
2019-05-01T14:57:12.322Z,49.83
2019-05-01T14:59:41.408Z,51.60
2019-05-01T15:02:10.500Z,49.50
2019-05-01T15:04:39.597Z,48.73
2019-05-01T15:07:11.166Z,49.27
2019-05-01T15:09:39.564Z,49.00
2019-05-01T15:12:09.951Z,48.43
2019-05-01T15:15:01.235Z,51.13
2019-05-01T15:17:42.405Z,52.97
2019-05-01T15:20:13.062Z,53.17
2019-05-01T15:22:42.157Z,53.77
2019-05-01T15:25:11.253Z,54.07
2019-05-01T15:27:40.359Z,55.70
2019-05-01T15:30:09.558Z,56.60
2019-05-01T15:32:38.711Z,56.53
2019-05-01T15:35:07.836Z,57.90
2019-05-01T15:37:37.012Z,56.73
2019-05-01T15:40:23.800Z,56.57
2019-05-01T15:43:03.474Z,59.63
2019-05-01T15:45:32.635Z,59.70
2019-05-01T15:48:01.843Z,58.67
2019-05-01T15:50:30.972Z,60.60
2019-05-01T15:53:00.068Z,58.70
2019-05-01T15:55:29.187Z,58.93
2019-05-01T15:57:58.238Z,56.83
2019-05-01T16:00:27.453Z,56.50
2019-05-01T16:02:56.571Z,56.43
2019-05-01T16:05:25.668Z,59.70
2019-05-01T16:07:54.719Z,55.73
2019-05-01T16:10:28.232Z,57.00
2019-05-01T16:13:01.492Z,58.83
2019-05-01T16:15:37.944Z,57.60
2019-05-01T16:18:06.978Z,56.97
2019-05-01T16:20:36.040Z,55.47
2019-05-01T16:23:05.061Z,52.77
2019-05-01T16:25:34.253Z,53.90
2019-05-01T16:28:03.333Z,50.63
2019-05-01T16:30:32.466Z,54.10
2019-05-01T16:33:01.504Z,52.10
2019-05-01T16:35:30.563Z,57.90
2019-05-01T16:38:01.783Z,57.57
2019-05-01T16:40:41.154Z,55.60
2019-05-01T16:43:11.710Z,55.50
2019-05-01T16:45:40.951Z,57.03
2019-05-01T16:48:10.034Z,54.80
2019-05-01T16:50:39.400Z,57.40
2019-05-01T16:53:08.538Z,57.30
2019-05-01T16:55:37.630Z,55.37
2019-05-01T16:58:08.778Z,57.90
2019-05-01T17:00:58.434Z,58.03
2019-05-01T17:03:52.272Z,58.87
2019-05-01T17:06:37.478Z,53.73
2019-05-01T17:09:33.068Z,56.07
2019-05-01T17:12:02.163Z,54.90
2019-05-01T17:14:31.639Z,50.63
2019-05-01T17:17:00.705Z,49.93
2019-05-01T17:19:30.096Z,47.83
2019-05-01T17:21:59.241Z,46.07
2019-05-01T17:24:28.390Z,45.90
2019-05-01T17:26:57.453Z,44.67
2019-05-01T17:29:26.517Z,45.40
2019-05-01T17:31:55.636Z,48.23
2019-05-01T17:34:25.557Z,43.03
2019-05-01T17:36:55.560Z,45.10
2019-05-01T17:39:24.824Z,47.27
2019-05-01T17:41:57.621Z,42.07
2019-05-01T17:44:26.406Z,41.00
2019-05-01T17:46:55.783Z,39.97
2019-05-01T17:49:24.986Z,40.50
2019-05-01T17:51:54.171Z,41.27
2019-05-01T17:54:23.327Z,39.93
2019-05-01T17:56:55.567Z,39.50
2019-05-01T17:59:25.726Z,40.67
2019-05-01T18:02:13.799Z,39.43
2019-05-01T18:05:05.121Z,38.30
2019-05-01T18:07:35.032Z,38.33
2019-05-01T18:10:05.008Z,37.77
2019-05-01T18:12:34.593Z,38.27
2019-05-01T18:15:04.004Z,39.03
2019-05-01T18:17:33.203Z,37.27
2019-05-01T18:20:02.351Z,38.70
2019-05-01T18:22:53.212Z,37.83
2019-05-01T18:25:33.058Z,38.73
2019-05-01T18:28:24.907Z,38.03
2019-05-01T18:30:56.522Z,38.03
2019-05-01T18:33:27.192Z,36.60
2019-05-01T18:35:56.638Z,37.67
2019-05-01T18:38:42.992Z,38.07
2019-05-01T18:41:21.712Z,37.23
2019-05-01T18:43:50.867Z,37.93
2019-05-01T18:46:20.051Z,38.97
2019-05-01T18:48:49.185Z,37.87
2019-05-01T18:51:18.366Z,39.60
2019-05-01T18:53:47.579Z,39.37
2019-05-01T18:56:16.733Z,38.10
2019-05-01T18:58:46.068Z,40.17
2019-05-01T19:01:15.436Z,39.77
2019-05-01T19:03:44.622Z,39.30
2019-05-01T19:06:13.869Z,37.57
2019-05-01T19:08:43.041Z,42.13
2019-05-01T19:11:13.313Z,39.93
2019-05-01T19:13:42.764Z,38.90
2019-05-01T19:16:11.906Z,40.17
2019-05-01T19:18:41.081Z,42.13
2019-05-01T19:21:11.293Z,40.23
2019-05-01T19:23:40.450Z,44.17
2019-05-01T19:26:10.756Z,40.03
2019-05-01T19:28:40.042Z,41.07
2019-05-01T19:31:09.177Z,42.17
2019-05-01T19:33:38.379Z,40.67
2019-05-01T19:36:08.763Z,40.73
2019-05-01T19:38:38.576Z,41.33
2019-05-01T19:41:09.624Z,41.50
2019-05-01T19:43:40.382Z,40.73
2019-05-01T19:46:09.924Z,41.00
2019-05-01T19:48:39.099Z,42.53
2019-05-01T19:51:08.249Z,43.60
2019-05-01T19:53:37.458Z,40.57
2019-05-01T19:56:06.616Z,40.93
2019-05-01T19:58:35.797Z,42.00
2019-05-01T20:01:05.127Z,43.00
2019-05-01T20:03:36.109Z,42.47
2019-05-01T20:06:08.248Z,43.13
2019-05-01T20:08:37.821Z,41.63
2019-05-01T20:11:09.589Z,41.97
2019-05-01T20:13:38.082Z,42.67
2019-05-01T20:16:09.848Z,42.53
2019-05-01T20:18:39.093Z,41.47
2019-05-01T20:21:08.249Z,42.30
2019-05-01T20:23:39.685Z,43.20
2019-05-01T20:26:08.841Z,42.63
2019-05-01T20:28:38.081Z,43.97
2019-05-01T20:31:07.191Z,42.00
2019-05-01T20:33:39.103Z,43.27
2019-05-01T20:36:07.401Z,44.20
2019-05-01T20:38:36.521Z,43.73
2019-05-01T20:41:10.373Z,45.00
2019-05-01T20:43:38.252Z,45.43
2019-05-01T20:46:07.391Z,43.17
2019-05-01T20:48:36.536Z,44.90
2019-05-01T20:51:05.645Z,47.50
2019-05-01T20:53:34.870Z,44.33
2019-05-01T20:56:13.733Z,45.57
2019-05-01T20:58:42.853Z,43.57
2019-05-01T21:01:14.063Z,43.17
2019-05-01T21:03:48.096Z,45.17
2019-05-01T21:06:23.367Z,46.13
2019-05-01T21:09:02.832Z,45.33
2019-05-01T21:11:35.335Z,46.27
2019-05-01T21:14:18.029Z,45.90
2019-05-01T21:16:37.814Z,45.57
2019-05-01T21:19:06.071Z,46.70
2019-05-01T21:21:35.184Z,45.93
2019-05-01T21:24:04.470Z,48.77
2019-05-01T21:26:33.669Z,48.93
2019-05-01T21:29:04.094Z,47.33
2019-05-01T21:31:34.089Z,47.43
2019-05-01T21:34:04.196Z,47.70
2019-05-01T21:36:33.462Z,48.30
2019-05-01T21:39:02.609Z,47.70
2019-05-01T21:41:32.857Z,48.73
2019-05-01T21:44:03.441Z,46.07
2019-05-01T21:46:34.062Z,46.60
2019-05-01T21:49:03.168Z,47.37
2019-05-01T21:51:32.825Z,49.03
2019-05-01T21:54:03.276Z,47.93
2019-05-01T21:56:32.476Z,49.63
2019-05-01T21:59:06.831Z,49.13
2019-05-01T22:01:34.791Z,50.47
2019-05-01T22:04:03.323Z,47.27
2019-05-01T22:06:32.423Z,49.67
2019-05-01T22:09:01.541Z,49.07
2019-05-01T22:11:33.063Z,48.73
2019-05-01T22:14:03.004Z,49.80
2019-05-01T22:16:32.216Z,51.87
2019-05-01T22:19:12.947Z,51.10
2019-05-01T22:21:59.650Z,49.10
2019-05-01T22:24:45.609Z,48.77
2019-05-01T22:27:20.829Z,51.87
2019-05-01T22:30:10.270Z,50.00
2019-05-01T22:32:40.418Z,49.93
2019-05-01T22:35:16.778Z,50.57
2019-05-01T22:37:45.941Z,50.17
2019-05-01T22:40:16.738Z,47.67
2019-05-01T22:42:45.838Z,52.57
2019-05-01T22:45:20.518Z,49.93
2019-05-01T22:47:50.758Z,49.57
2019-05-01T22:50:20.481Z,51.33
2019-05-01T22:52:49.611Z,49.30
2019-05-01T22:55:20.457Z,50.30
2019-05-01T22:57:49.590Z,50.50
2019-05-01T23:00:31.334Z,48.67
2019-05-01T23:03:05.606Z,50.20
2019-05-01T23:05:33.743Z,49.67
2019-05-01T23:08:03.469Z,50.53
2019-05-01T23:10:34.413Z,49.00
2019-05-01T23:13:04.350Z,49.37
2019-05-01T23:15:35.374Z,51.33
2019-05-01T23:18:04.918Z,48.77
2019-05-01T23:20:34.686Z,48.77
2019-05-01T23:23:05.542Z,50.83
2019-05-01T23:25:36.567Z,50.13
2019-05-01T23:28:06.179Z,50.17
2019-05-01T23:30:35.631Z,50.47
2019-05-01T23:33:05.005Z,47.50
2019-05-01T23:35:34.330Z,49.30
2019-05-01T23:38:03.801Z,50.17
2019-05-01T23:40:33.253Z,49.00
2019-05-01T23:43:02.408Z,49.73
2019-05-01T23:45:31.758Z,49.33
2019-05-01T23:48:01.082Z,49.37
2019-05-01T23:50:30.381Z,49.60
2019-05-01T23:52:59.865Z,50.07
2019-05-01T23:55:28.982Z,49.50
2019-05-01T23:57:58.113Z,47.00
